Terminal Aerodrome Forecast
Issued by NWS

Home | Current Version | Previous Version | Graphics & Text | Print | Product List | Glossary On
Versions: 1 2 3 4 5 6 7 8 9 10 11 12 13 14 15 16 17 18 19 20
647
FTUS43 KMPX 200846 AAB
TAFRWF
TAF AMD
KRWF 200846Z 2009/2106 34008KT 6SM BR VCSH OVC008
      TEMPO 2009/2012 2SM -SN BR SCT008 BKN014
     FM201400 33010KT P6SM OVC014
     FM202100 31014G20KT P6SM BKN020
     FM210200 29009KT P6SM SKC=

USA.gov is the U.S. government's official web portal to all federal, state and local government web resources and services.